Time;durP1;ratioP1;P1;durP2;ratioP2;P2;SDS_P1;SDS_P2;PMS_P1;PMS_P2;Temp;Humidity;BMP_temperature;BMP_pressure;BME280_temperature;BME280_humidity;BME280_pressure;Samples;Min_cycle;Max_cycle;Signal;HPM_P1;HPM_P2
2023/06/22 00:02:24;;;;;;;;;20.20;19.80;;;;;21.01;56.69;100089.09;5098135;28;8845;-59
2023/06/22 00:04:52;;;;;;;;;21.00;18.80;;;;;21.02;56.94;100091.63;5098733;28;8837;-59
2023/06/22 00:07:20;;;;;;;;;15.00;14.80;;;;;21.03;56.86;100095.19;5097563;28;8813;-59
2023/06/22 00:09:48;;;;;;;;;22.40;21.00;;;;;21.03;57.13;100093.31;5098433;28;8968;-59
2023/06/22 00:12:16;;;;;;;;;23.60;22.20;;;;;21.04;57.12;100091.47;5097782;28;8843;-59
2023/06/22 00:14:44;;;;;;;;;21.20;18.60;;;;;21.05;56.83;100090.44;5098851;28;9629;-59
2023/06/22 00:17:12;;;;;;;;;18.40;17.80;;;;;21.06;57.09;100103.81;5098184;28;8825;-59
2023/06/22 00:19:40;;;;;;;;;19.00;16.60;;;;;21.06;56.73;100097.53;5098174;28;8841;-59
2023/06/22 00:22:08;;;;;;;;;18.80;16.60;;;;;21.07;57.09;100094.63;5097871;28;8829;-59
2023/06/22 00:24:36;;;;;;;;;18.60;16.80;;;;;21.08;57.29;100100.88;5097712;28;8849;-59
2023/06/22 00:27:05;;;;;;;;;18.40;17.40;;;;;21.08;56.67;100095.47;5097707;28;8833;-57
2023/06/22 00:29:33;;;;;;;;;21.60;18.80;;;;;21.08;57.42;100093.63;5097032;28;8810;-59
2023/06/22 00:32:00;;;;;;;;;18.00;17.60;;;;;21.10;57.07;100093.44;5097814;28;8837;-59
2023/06/22 00:34:28;;;;;;;;;17.80;17.40;;;;;21.11;56.71;100092.41;5097965;28;8841;-60
2023/06/22 00:36:56;;;;;;;;;15.40;15.40;;;;;21.11;57.02;100089.69;5098375;28;9522;-59
2023/06/22 00:39:23;;;;;;;;;19.00;18.60;;;;;21.11;56.87;100097.81;5097099;28;8840;-60
2023/06/22 00:41:52;;;;;;;;;17.40;17.00;;;;;21.08;57.20;100096.31;5097087;28;8947;-58
2023/06/22 00:44:20;;;;;;;;;20.20;19.40;;;;;21.06;56.92;100092.09;5098014;28;8833;-59
2023/06/22 00:46:48;;;;;;;;;21.80;21.60;;;;;21.00;57.01;100096.41;5097720;28;8829;-58
2023/06/22 00:49:16;;;;;;;;;19.40;18.00;;;;;20.92;57.59;100087.50;5097091;28;9557;-58
2023/06/22 00:51:47;;;;;;;;;23.20;20.60;;;;;20.84;57.80;100084.84;5097102;28;8833;-58
2023/06/22 00:54:15;;;;;;;;;15.60;14.60;;;;;20.76;57.90;100079.50;5097519;28;8841;-57
2023/06/22 00:56:43;;;;;;;;;20.40;18.60;;;;;20.70;58.12;100091.06;5097541;28;8825;-58
2023/06/22 00:59:12;;;;;;;;;19.40;17.80;;;;;20.65;58.30;100098.91;5096695;28;8851;-57
2023/06/22 01:01:41;;;;;;;;;18.60;18.00;;;;;20.60;58.44;100095.91;5096885;28;9522;-58
2023/06/22 01:04:09;;;;;;;;;14.40;14.40;;;;;20.58;58.00;100086.28;5097322;28;8832;-58
2023/06/22 01:06:38;;;;;;;;;17.60;17.60;;;;;20.57;58.04;100092.72;5097157;28;8874;-58
2023/06/22 01:09:06;;;;;;;;;11.20;10.80;;;;;20.55;58.07;100092.88;5097241;28;8843;-57
2023/06/22 01:11:33;;;;;;;;;19.60;19.60;;;;;20.53;58.11;100094.94;5097435;28;8837;-57
2023/06/22 01:14:01;;;;;;;;;25.00;24.60;;;;;20.50;58.40;100094.47;5097208;28;8848;-57
2023/06/22 01:16:30;;;;;;;;;20.60;18.60;;;;;20.44;58.57;100101.44;5096866;28;8865;-57
2023/06/22 01:18:58;;;;;;;;;19.60;18.20;;;;;20.43;58.54;100093.50;5096761;28;8837;-57
2023/06/22 01:21:26;;;;;;;;;18.20;18.20;;;;;20.40;58.71;100094.69;5096959;28;8848;-57
2023/06/22 01:23:54;;;;;;;;;21.80;20.80;;;;;20.40;58.58;100088.47;5096955;28;9550;-58
2023/06/22 01:26:21;;;;;;;;;20.40;19.80;;;;;20.39;58.69;100090.31;5096553;28;8833;-57
2023/06/22 01:28:49;;;;;;;;;17.40;17.40;;;;;20.40;59.00;100089.28;5097125;28;9479;-58
2023/06/22 01:31:17;;;;;;;;;19.40;17.80;;;;;20.41;58.90;100079.31;5096346;28;8853;-57
2023/06/22 01:33:44;;;;;;;;;20.20;20.00;;;;;20.43;58.76;100082.69;5076409;28;8957;-58
2023/06/22 01:36:12;;;;;;;;;19.80;19.00;;;;;20.43;58.95;100077.25;5075154;28;8891;-58
2023/06/22 01:38:40;;;;;;;;;21.00;20.60;;;;;20.43;58.64;100072.72;5075137;28;8863;-56
2023/06/22 01:41:07;;;;;;;;;23.00;19.60;;;;;20.43;58.77;100071.84;5086617;28;8829;-57
2023/06/22 01:43:35;;;;;;;;;19.60;18.80;;;;;20.41;58.69;100077.44;5096105;28;8833;-56
2023/06/22 01:46:03;;;;;;;;;21.80;20.00;;;;;20.41;58.91;100079.31;5095976;28;8878;-58
2023/06/22 01:48:30;;;;;;;;;23.00;22.60;;;;;20.40;58.68;100083.06;5095351;28;8846;-57
2023/06/22 01:50:58;;;;;;;;;20.20;19.80;;;;;20.37;58.89;100077.97;5095283;28;8836;-58
2023/06/22 01:53:26;;;;;;;;;20.60;18.40;;;;;20.36;59.15;100076.31;5096828;28;8825;-59
2023/06/22 01:55:54;;;;;;;;;22.60;22.60;;;;;20.35;58.74;100074.63;5096788;28;8833;-59
2023/06/22 01:58:21;;;;;;;;;20.00;18.40;;;;;20.34;58.89;100073.78;5096334;28;8887;-59
2023/06/22 02:00:49;;;;;;;;;23.00;19.20;;;;;20.35;59.27;100080.03;5096150;28;8821;-59
2023/06/22 02:03:17;;;;;;;;;20.80;20.40;;;;;20.36;58.73;100082.56;5096178;28;8856;-59
2023/06/22 02:05:45;;;;;;;;;21.20;21.00;;;;;20.38;58.96;100080.53;5096620;28;8935;-59
2023/06/22 02:08:15;;;;;;;;;16.80;15.40;;;;;20.38;58.75;100080.53;5095568;28;8976;-59
2023/06/22 02:10:43;;;;;;;;;17.00;16.20;;;;;20.40;59.04;100083.06;5095980;28;8860;-59
2023/06/22 02:13:10;;;;;;;;;22.20;21.00;;;;;20.39;58.92;100078.66;5095972;28;8829;-59
2023/06/22 02:15:38;;;;;;;;;16.20;16.20;;;;;20.39;58.84;100078.66;5095878;28;8871;-59
2023/06/22 02:18:06;;;;;;;;;18.80;18.40;;;;;20.36;59.19;100077.16;5095932;28;8826;-59
2023/06/22 02:20:34;;;;;;;;;21.20;17.60;;;;;20.36;59.19;100076.31;5095840;28;8837;-59
2023/06/22 02:23:02;;;;;;;;;20.80;17.60;;;;;20.33;58.96;100077.50;5095633;28;9436;-59
2023/06/22 02:25:29;;;;;;;;;22.20;19.60;;;;;20.31;59.38;100073.31;5095926;28;8836;-59
2023/06/22 02:27:57;;;;;;;;;25.60;23.40;;;;;20.28;59.53;100073.66;5095591;28;8875;-59
2023/06/22 02:30:25;;;;;;;;;21.00;20.00;;;;;20.25;59.66;100072.16;5095847;28;8829;-59
2023/06/22 02:32:58;;;;;;;;;24.00;23.20;;;;;20.22;59.42;100064.41;5096079;28;9570;-59
2023/06/22 02:35:26;;;;;;;;;20.80;16.40;;;;;20.21;59.54;100062.72;5095285;28;8849;-58
2023/06/22 02:37:54;;;;;;;;;22.40;21.60;;;;;20.19;59.69;100062.06;5095309;28;8835;-59
2023/06/22 02:40:22;;;;;;;;;17.40;15.60;;;;;20.17;59.65;100058.69;5095871;28;8845;-59
2023/06/22 02:42:49;;;;;;;;;21.00;20.60;;;;;20.15;59.60;100058.03;5096076;28;8871;-59
2023/06/22 02:45:17;;;;;;;;;20.40;17.60;;;;;20.15;59.62;100062.59;5095730;28;8852;-59
2023/06/22 02:47:45;;;;;;;;;18.40;17.80;;;;;20.11;59.95;100056.69;5095970;28;8833;-59
2023/06/22 02:50:13;;;;;;;;;19.00;17.60;;;;;20.06;60.03;100053.72;5095507;28;8856;-59
2023/06/22 02:52:40;;;;;;;;;17.40;16.20;;;;;20.01;59.94;100056.06;5095186;28;8829;-59
2023/06/22 02:55:08;;;;;;;;;19.60;18.20;;;;;19.97;60.36;100049.34;5095740;28;8844;-59
2023/06/22 02:57:36;;;;;;;;;20.80;19.80;;;;;19.92;60.12;100050.88;5095814;28;8825;-59
2023/06/22 03:00:06;;;;;;;;;15.40;15.40;;;;;19.87;60.01;100051.44;5095421;28;9460;-59
2023/06/22 03:02:34;;;;;;;;;18.60;17.00;;;;;19.83;60.27;100039.31;5095275;28;8914;-59
2023/06/22 03:05:03;;;;;;;;;16.40;15.60;;;;;19.79;60.40;100047.94;5097600;28;8856;-59
2023/06/22 03:07:31;;;;;;;;;16.80;16.40;;;;;19.75;60.30;100039.34;5099518;28;8952;-58
2023/06/22 03:09:59;;;;;;;;;23.00;22.80;;;;;19.71;60.99;100039.88;5098200;28;8821;-58
2023/06/22 03:12:27;;;;;;;;;16.40;16.40;;;;;19.69;60.44;100040.06;5099583;28;8914;-59
2023/06/22 03:14:54;;;;;;;;;22.20;21.40;;;;;19.66;60.76;100034.16;5098611;28;8841;-56
2023/06/22 03:17:22;;;;;;;;;20.60;20.00;;;;;19.64;61.15;100037.03;5099047;28;8837;-58
2023/06/22 03:19:50;;;;;;;;;15.80;14.80;;;;;19.61;60.93;100026.59;5098335;28;8838;-59
2023/06/22 03:22:17;;;;;;;;;17.60;17.00;;;;;19.59;60.82;100025.94;5099311;28;8849;-59
2023/06/22 03:24:45;;;;;;;;;21.00;21.00;;;;;19.58;60.84;100026.94;5099195;28;8833;-59
2023/06/22 03:27:14;;;;;;;;;27.00;25.40;;;;;19.58;60.99;100023.41;5098859;28;8925;-59
2023/06/22 03:29:41;;;;;;;;;23.60;22.40;;;;;19.56;61.15;100023.56;5097740;28;8840;-59
2023/06/22 03:32:09;;;;;;;;;20.80;19.80;;;;;19.56;60.70;100028.97;5099059;28;8892;-58
2023/06/22 03:34:37;;;;;;;;;31.00;28.40;;;;;19.57;60.69;100033.34;5098987;28;8841;-59
2023/06/22 03:37:05;;;;;;;;;26.20;23.20;;;;;19.59;61.16;100039.44;5098527;28;8841;-59
2023/06/22 03:39:32;;;;;;;;;32.50;29.50;;;;;19.63;61.18;100037.19;5098327;28;8860;-59
2023/06/22 03:42:00;;;;;;;;;22.60;20.80;;;;;19.69;61.14;100033.78;5099139;28;8984;-58
2023/06/22 03:44:30;;;;;;;;;24.00;22.40;;;;;19.77;60.65;100025.63;5099212;28;8837;-58
2023/06/22 03:46:57;;;;;;;;;15.40;14.00;;;;;19.84;60.55;100027.47;5098295;28;8879;-58
2023/06/22 03:49:25;;;;;;;;;19.60;18.40;;;;;19.90;60.25;100026.75;5098713;28;8859;-59
2023/06/22 03:51:53;;;;;;;;;21.80;17.60;;;;;19.96;60.35;100033.31;5098511;28;8903;-57
2023/06/22 03:54:20;;;;;;;;;16.00;14.80;;;;;20.02;60.30;100035.28;5098335;28;8876;-58
2023/06/22 03:56:48;;;;;;;;;19.00;18.20;;;;;20.06;60.22;100032.09;5098364;28;8833;-59
2023/06/22 03:59:16;;;;;;;;;20.00;20.00;;;;;20.10;60.23;100036.09;5098459;28;8860;-58
2023/06/22 04:01:44;;;;;;;;;19.60;18.80;;;;;20.15;59.74;100035.53;5098260;28;8841;-59
2023/06/22 04:04:12;;;;;;;;;21.60;19.80;;;;;20.20;59.67;100031.31;5098502;28;8845;-59
2023/06/22 04:06:40;;;;;;;;;20.40;19.80;;;;;20.25;59.66;100026.16;5097741;28;8863;-58
2023/06/22 04:09:08;;;;;;;;;20.40;18.20;;;;;20.30;60.08;100021.06;5098106;28;8859;-58
2023/06/22 04:11:36;;;;;;;;;23.20;20.20;;;;;20.37;59.41;100015.75;5098304;28;9495;-59
2023/06/22 04:14:04;;;;;;;;;22.40;20.60;;;;;20.42;59.88;100014.22;5098181;28;8980;-59
2023/06/22 04:16:31;;;;;;;;;20.00;19.80;;;;;20.46;59.83;100006.56;5096589;28;8855;-58
2023/06/22 04:18:59;;;;;;;;;24.20;23.20;;;;;20.46;59.65;100012.81;5097764;28;8869;-59
2023/06/22 04:21:27;;;;;;;;;24.20;23.20;;;;;20.46;59.71;100023.63;5098270;28;8837;-59
2023/06/22 04:23:55;;;;;;;;;23.80;21.20;;;;;20.46;59.96;100031.75;5097729;28;8833;-59
2023/06/22 04:26:22;;;;;;;;;22.20;20.60;;;;;20.45;59.90;100027.38;5096685;28;8837;-58
2023/06/22 04:28:55;;;;;;;;;19.60;19.60;;;;;20.44;60.04;100022.97;5097393;28;8956;-59
2023/06/22 04:31:31;;;;;;;;;23.60;21.40;;;;;20.43;59.86;100015.88;5096987;28;8851;-57
2023/06/22 04:34:06;;;;;;;;;22.40;19.80;;;;;20.44;59.57;100009.44;5097393;28;8872;-59
2023/06/22 04:36:37;;;;;;;;;22.60;20.20;;;;;20.44;59.95;100017.56;5096663;28;8832;-58
2023/06/22 04:39:05;;;;;;;;;22.20;21.60;;;;;20.45;60.27;100011.13;5097523;28;8833;-58
2023/06/22 04:41:41;;;;;;;;;24.00;23.20;;;;;20.46;59.77;100012.81;5096970;28;8865;-58
2023/06/22 04:44:09;;;;;;;;;25.80;24.20;;;;;20.46;59.74;100022.81;5097931;28;8869;-58
2023/06/22 04:46:38;;;;;;;;;28.20;27.80;;;;;20.44;60.32;100027.53;5097088;28;8837;-59
2023/06/22 04:49:09;;;;;;;;;28.00;25.40;;;;;20.35;60.19;100048.44;5096388;28;8825;-58
2023/06/22 04:51:37;;;;;;;;;27.00;25.00;;;;;20.25;60.85;100047.00;5097639;28;9503;-59
2023/06/22 04:54:05;;;;;;;;;27.80;24.00;;;;;20.12;61.73;100047.59;5096486;28;8856;-58
2023/06/22 04:56:33;;;;;;;;;23.00;21.20;;;;;20.07;61.39;100046.44;5096109;28;8834;-59
2023/06/22 04:59:01;;;;;;;;;24.40;24.40;;;;;20.06;61.60;100042.91;5097179;28;8855;-59
2023/06/22 05:01:30;;;;;;;;;26.80;24.60;;;;;20.04;61.43;100044.88;5096421;28;9583;-58
2023/06/22 05:04:00;;;;;;;;;23.20;22.00;;;;;19.98;61.53;100050.19;5096829;28;8958;-57
2023/06/22 05:06:28;;;;;;;;;17.20;17.20;;;;;19.95;61.69;100050.56;5096265;28;8939;-58
2023/06/22 05:08:57;;;;;;;;;25.60;22.80;;;;;19.90;62.15;100053.78;5097156;28;8953;-59
2023/06/22 05:11:25;;;;;;;;;25.80;25.00;;;;;19.82;61.81;100040.31;5096885;28;9045;-58
2023/06/22 05:13:53;;;;;;;;;24.20;23.80;;;;;19.74;62.41;100037.69;5096154;28;8833;-58
2023/06/22 05:16:23;;;;;;;;;22.60;21.20;;;;;19.71;62.25;100035.31;5095813;28;8865;-59
2023/06/22 05:18:51;;;;;;;;;24.80;24.00;;;;;19.72;62.39;100028.88;5096254;28;8832;-57
2023/06/22 05:21:20;;;;;;;;;26.20;25.00;;;;;19.73;62.55;100035.97;5095961;28;8837;-59
2023/06/22 05:23:47;;;;;;;;;26.40;25.20;;;;;19.74;62.40;100037.69;5096577;28;8976;-58
2023/06/22 05:26:15;;;;;;;;;31.80;27.80;;;;;19.73;62.29;100035.97;5096739;28;8855;-59
2023/06/22 05:31:43;;;;;;;;;26.80;22.60;;;;;19.72;62.64;100041.56;5096038;28;9503;-59
2023/06/22 05:34:11;;;;;;;;;27.00;24.20;;;;;19.73;62.73;100037.84;5096169;28;8833;-58
2023/06/22 05:36:39;;;;;;;;;23.80;22.80;;;;;19.73;62.65;100030.56;5096640;28;8937;-58
2023/06/22 05:39:06;;;;;;;;;25.40;24.20;;;;;19.74;63.18;100040.38;5095917;28;8855;-59
2023/06/22 05:41:34;;;;;;;;;36.00;28.60;;;;;19.80;62.73;100028.00;5094601;28;8947;-58
2023/06/22 05:44:02;;;;;;;;;21.00;20.40;;;;;19.87;63.48;100031.69;5095678;28;8837;-59
2023/06/22 05:46:30;;;;;;;;;33.20;29.00;;;;;19.93;62.76;100030.94;5095850;28;8972;-59
2023/06/22 05:48:57;;;;;;;;;28.80;27.40;;;;;19.97;62.86;100026.88;5096007;28;8844;-58
2023/06/22 05:51:25;;;;;;;;;23.00;20.00;;;;;20.06;62.99;100036.63;5095444;28;8821;-59
2023/06/22 05:53:53;;;;;;;;;25.60;24.00;;;;;20.13;62.95;100034.91;5096072;28;8837;-59
2023/06/22 05:56:22;;;;;;;;;30.80;27.20;;;;;20.20;63.12;100033.16;5095520;28;8837;-59
2023/06/22 05:58:49;;;;;;;;;26.20;24.60;;;;;20.26;63.20;100030.56;5095339;28;8922;-60
2023/06/22 06:01:17;;;;;;;;;25.40;24.00;;;;;20.33;62.70;100030.69;5094929;28;8841;-58
2023/06/22 06:03:45;;;;;;;;;23.40;22.40;;;;;20.38;62.61;100021.00;5094514;28;8863;-59
2023/06/22 06:06:13;;;;;;;;;26.60;24.80;;;;;20.41;62.88;100026.03;5094524;28;8861;-59
2023/06/22 06:08:41;;;;;;;;;20.20;19.80;;;;;20.44;62.81;100039.22;5093867;28;8959;-57
2023/06/22 06:11:08;;;;;;;;;29.20;26.60;;;;;20.48;62.72;100043.22;5094141;28;8948;-57
2023/06/22 06:13:36;;;;;;;;;25.80;20.60;;;;;20.50;62.48;100038.50;5094136;28;8867;-58
2023/06/22 06:16:04;;;;;;;;;15.20;15.20;;;;;20.52;62.61;100035.56;5094929;28;8910;-59
2023/06/22 06:18:32;;;;;;;;;29.40;27.00;;;;;20.52;62.87;100036.44;5094917;28;8915;-59
2023/06/22 06:21:00;;;;;;;;;26.20;25.80;;;;;20.55;62.37;100033.34;5093321;28;8935;-57
2023/06/22 06:23:28;;;;;;;;;30.80;28.20;;;;;20.61;62.74;100032.63;5094883;28;8960;-59
2023/06/22 06:25:56;;;;;;;;;28.20;27.60;;;;;20.70;62.71;100027.97;5094223;28;8869;-58
2023/06/22 06:28:24;;;;;;;;;30.40;28.20;;;;;20.78;62.90;100013.34;5094618;28;8855;-58
2023/06/22 06:30:52;;;;;;;;;31.40;26.80;;;;;20.87;62.52;100011.44;5094224;28;8939;-59
2023/06/22 06:33:20;;;;;;;;;27.80;24.60;;;;;20.97;62.36;100009.28;5094075;28;8833;-59
2023/06/22 06:35:51;;;;;;;;;27.20;26.00;;;;;21.07;62.56;100015.25;5093985;28;8865;-56
2023/06/22 06:38:19;;;;;;;;;30.80;28.40;;;;;21.15;62.33;100017.84;5093210;28;8930;-59
2023/06/22 06:40:48;;;;;;;;;28.60;27.00;;;;;21.22;62.03;100016.94;5092805;28;8833;-58
2023/06/22 06:43:16;;;;;;;;;30.00;28.00;;;;;21.32;62.54;100003.91;5093885;28;8845;-57
2023/06/22 06:45:45;;;;;;;;;29.60;26.60;;;;;21.40;62.22;100008.41;5093698;28;8853;-60
2023/06/22 06:48:12;;;;;;;;;30.20;28.80;;;;;21.51;62.04;100010.63;5093627;28;8849;-59
2023/06/22 06:50:40;;;;;;;;;28.80;28.00;;;;;21.60;62.29;100009.47;5093954;28;8841;-59
2023/06/22 06:53:08;;;;;;;;;30.60;28.80;;;;;21.68;61.68;99999.41;5094065;28;8888;-59
2023/06/22 06:55:36;;;;;;;;;34.40;31.80;;;;;21.79;61.76;100008.91;5093929;28;8853;-59
2023/06/22 06:58:04;;;;;;;;;25.60;23.00;;;;;21.87;61.67;99992.50;5093898;28;9545;-58
2023/06/22 07:00:32;;;;;;;;;36.20;32.00;;;;;21.98;61.78;99992.00;5094052;28;8941;-59
2023/06/22 07:03:00;;;;;;;;;29.60;27.60;;;;;22.14;61.00;99986.28;5094361;28;8841;-59
2023/06/22 07:05:28;;;;;;;;;33.40;29.60;;;;;22.36;61.19;99985.25;5093124;28;8864;-59
2023/06/22 07:07:56;;;;;;;;;29.00;26.20;;;;;22.54;60.77;99989.19;5092959;28;8825;-59
2023/06/22 07:10:24;;;;;;;;;33.40;31.00;;;;;22.69;60.86;99991.81;5093192;28;8844;-58
2023/06/22 07:12:52;;;;;;;;;28.60;22.40;;;;;22.80;60.71;99996.69;5093191;28;9849;-58
2023/06/22 07:15:20;;;;;;;;;33.60;29.20;;;;;22.89;60.37;99990.06;5093375;28;8857;-59
2023/06/22 07:17:48;;;;;;;;;29.20;28.80;;;;;22.94;60.44;99990.31;5093356;28;8841;-58
2023/06/22 07:20:16;;;;;;;;;31.80;27.40;;;;;22.94;60.25;99988.44;5093370;28;8866;-59
2023/06/22 07:22:44;;;;;;;;;33.80;30.40;;;;;22.93;60.72;99994.88;5094180;28;8837;-59
2023/06/22 07:25:14;;;;;;;;;31.00;30.40;;;;;22.93;60.81;99997.59;5094281;28;8853;-59
2023/06/22 07:27:42;;;;;;;;;30.60;30.00;;;;;22.92;61.30;99992.41;5093689;28;8875;-60
2023/06/22 07:30:10;;;;;;;;;26.20;24.40;;;;;22.94;61.32;99987.59;5093323;28;8995;-60
2023/06/22 07:32:38;;;;;;;;;26.80;25.60;;;;;23.00;61.24;99974.03;5095412;28;8833;-59
2023/06/22 07:35:06;;;;;;;;;28.60;24.80;;;;;23.12;61.01;99971.59;5094292;28;8967;-59
2023/06/22 07:37:34;;;;;;;;;31.00;24.20;;;;;23.25;60.78;99967.13;5094007;28;8836;-59
2023/06/22 07:40:05;;;;;;;;;31.40;28.80;;;;;23.39;60.54;99968.00;5094128;28;8834;-57
2023/06/22 07:42:34;;;;;;;;;29.20;27.40;;;;;23.54;60.10;99963.25;5093935;28;8853;-60
2023/06/22 07:45:02;;;;;;;;;30.00;27.00;;;;;23.77;59.83;99964.56;5094532;28;8869;-60
2023/06/22 07:47:33;;;;;;;;;33.00;31.80;;;;;24.00;59.45;99958.78;5094070;28;8825;-60
2023/06/22 07:50:02;;;;;;;;;32.60;29.40;;;;;24.12;59.06;99948.97;5093660;28;8852;-60
2023/06/22 07:52:29;;;;;;;;;37.60;31.40;;;;;24.29;58.80;99939.31;5097356;28;8829;-60
2023/06/22 07:54:57;;;;;;;;;29.40;27.80;;;;;24.44;58.68;99943.50;5097919;28;8860;-59
2023/06/22 07:57:33;;;;;;;;;26.40;25.00;;;;;24.61;58.84;99943.94;5097496;28;8841;-59
2023/06/22 08:00:01;;;;;;;;;34.20;29.00;;;;;24.85;58.28;99945.97;5097808;28;8845;-59
2023/06/22 08:02:29;;;;;;;;;27.20;26.20;;;;;25.07;57.69;99945.50;5096841;28;8853;-58
2023/06/22 08:04:57;;;;;;;;;25.40;24.80;;;;;25.29;57.78;99946.94;5097528;28;8841;-59
2023/06/22 08:07:43;;;;;;;;;25.80;22.80;;;;;25.47;57.33;99940.78;5097452;28;8907;-57
2023/06/22 08:10:14;;;;;;;;;28.60;25.60;;;;;25.51;57.69;99931.94;5096407;28;8856;-59
2023/06/22 08:12:42;;;;;;;;;29.80;29.20;;;;;25.56;57.17;99931.28;5096505;28;8938;-59
2023/06/22 08:15:10;;;;;;;;;24.80;21.80;;;;;25.62;57.50;99925.78;5095913;28;8849;-57
2023/06/22 08:17:38;;;;;;;;;19.00;17.20;;;;;25.67;57.19;99924.06;5096463;28;8864;-59
2023/06/22 08:20:09;;;;;;;;;25.60;23.80;;;;;25.76;57.51;99925.50;5096861;28;8938;-59
2023/06/22 08:22:37;;;;;;;;;24.40;23.60;;;;;25.83;57.32;99923.56;5096332;28;9649;-60
2023/06/22 08:25:06;;;;;;;;;28.00;25.20;;;;;25.94;57.19;99925.59;5096640;28;8852;-57
2023/06/22 08:27:34;;;;;;;;;30.80;27.00;;;;;26.03;57.50;99927.00;5096305;28;8845;-60
2023/06/22 08:30:02;;;;;;;;;30.80;29.00;;;;;26.12;56.93;99920.19;5096228;28;8825;-57
2023/06/22 08:32:30;;;;;;;;;26.60;24.00;;;;;26.20;56.75;99921.84;5096764;28;8848;-59
2023/06/22 08:34:58;;;;;;;;;25.00;23.20;;;;;26.23;57.02;99911.31;5096548;28;8845;-58
2023/06/22 08:37:30;;;;;;;;;27.40;26.00;;;;;26.29;57.79;99909.56;5096411;28;8853;-59
2023/06/22 08:39:58;;;;;;;;;26.20;24.80;;;;;26.34;57.60;99898.81;5095988;28;8922;-58
2023/06/22 08:42:26;;;;;;;;;25.60;22.40;;;;;26.39;57.56;99902.53;5095705;28;8857;-58
2023/06/22 08:44:54;;;;;;;;;29.00;26.40;;;;;26.47;57.46;99895.94;5095484;28;8832;-60
2023/06/22 08:47:23;;;;;;;;;22.40;21.60;;;;;26.55;57.90;99903.91;5094816;28;8837;-58
2023/06/22 08:49:51;;;;;;;;;26.80;23.60;;;;;26.55;58.15;99898.44;5094946;28;8837;-57
2023/06/22 08:52:19;;;;;;;;;27.00;25.40;;;;;26.59;57.42;99891.44;5095674;28;8833;-58
2023/06/22 08:54:47;;;;;;;;;31.80;29.40;;;;;26.68;57.85;99881.88;5094992;28;8837;-57
2023/06/22 08:57:15;;;;;;;;;28.20;27.20;;;;;26.73;57.99;99879.31;5095510;28;8975;-57
2023/06/22 08:59:44;;;;;;;;;24.40;22.40;;;;;26.77;57.85;99880.53;5095346;28;8837;-59
2023/06/22 09:02:12;;;;;;;;;22.80;22.80;;;;;26.85;57.57;99886.53;5095502;28;8931;-59
2023/06/22 09:04:41;;;;;;;;;28.00;25.00;;;;;26.92;57.68;99879.09;5094960;28;8841;-57
2023/06/22 09:07:09;;;;;;;;;23.60;21.40;;;;;27.03;57.63;99878.31;5096290;28;8883;-60
2023/06/22 09:09:37;;;;;;;;;24.80;22.00;;;;;27.13;57.76;99867.69;5096053;28;8971;-59
2023/06/22 09:12:05;;;;;;;;;23.60;22.00;;;;;27.26;57.43;99866.69;5096259;28;8885;-59
2023/06/22 09:14:33;;;;;;;;;21.60;20.40;;;;;27.36;57.10;99858.75;5096310;28;8849;-59
2023/06/22 09:17:01;;;;;;;;;24.20;22.60;;;;;27.46;56.69;99865.34;5096061;28;8871;-58
2023/06/22 09:19:29;;;;;;;;;21.20;20.20;;;;;27.61;56.87;99862.22;5095572;28;8841;-59
2023/06/22 09:21:57;;;;;;;;;26.40;22.60;;;;;27.73;56.66;99861.16;5095746;28;8864;-58
2023/06/22 09:24:26;;;;;;;;;29.40;26.00;;;;;27.87;55.74;99857.19;5095620;28;8845;-59
2023/06/22 09:26:54;;;;;;;;;29.80;27.00;;;;;27.98;56.24;99852.81;5094277;28;8922;-58
2023/06/22 09:29:22;;;;;;;;;26.80;23.60;;;;;28.09;56.17;99855.56;5093605;28;8863;-58
2023/06/22 09:31:50;;;;;;;;;24.60;22.60;;;;;28.22;55.95;99859.97;5092669;28;8833;-59
2023/06/22 09:34:20;;;;;;;;;26.40;22.40;;;;;28.39;55.26;99850.00;5094132;28;8841;-58
2023/06/22 09:36:48;;;;;;;;;22.20;21.20;;;;;28.63;54.67;99857.97;5094087;28;8825;-58
2023/06/22 09:39:16;;;;;;;;;21.60;20.20;;;;;28.86;54.63;99857.94;5094023;28;8848;-59
2023/06/22 09:41:44;;;;;;;;;27.40;24.60;;;;;28.95;54.42;99855.66;5094128;28;8872;-58
2023/06/22 09:44:12;;;;;;;;;23.20;21.60;;;;;28.98;55.10;99855.19;5094588;28;8860;-59
2023/06/22 09:46:40;;;;;;;;;26.20;23.60;;;;;28.96;54.76;99847.19;5094413;28;8841;-58
2023/06/22 09:49:08;;;;;;;;;22.60;21.40;;;;;28.95;54.96;99829.06;5094585;28;8833;-60
2023/06/22 09:51:36;;;;;;;;;21.40;20.20;;;;;28.98;54.71;99827.75;5093523;28;8860;-58
2023/06/22 09:54:04;;;;;;;;;21.40;20.40;;;;;28.96;55.05;99813.47;5094615;28;8845;-60
2023/06/22 09:56:32;;;;;;;;;17.80;17.20;;;;;28.90;55.11;99811.66;5094331;28;8830;-59
2023/06/22 09:59:00;;;;;;;;;24.00;22.80;;;;;28.78;55.45;99805.34;5094795;28;8844;-60
2023/06/22 10:01:44;;;;;;;;;23.00;21.80;;;;;28.61;56.10;99808.00;5094487;28;9503;-60
2023/06/22 10:04:12;;;;;;;;;22.60;21.20;;;;;28.47;56.60;99794.81;5094409;28;9541;-59
2023/06/22 10:06:42;;;;;;;;;20.00;18.00;;;;;28.39;56.41;99800.66;5093726;28;8918;-58
2023/06/22 10:09:10;;;;;;;;;12.20;11.20;;;;;28.30;57.10;99797.41;5092922;28;8833;-58
2023/06/22 10:11:38;;;;;;;;;23.40;20.00;;;;;28.23;57.52;99802.19;5092468;28;8848;-59
2023/06/22 10:14:06;;;;;;;;;22.40;19.20;;;;;28.19;56.95;99800.16;5092397;28;8845;-59
2023/06/22 10:16:35;;;;;;;;;23.60;22.40;;;;;28.20;57.56;99802.66;5094948;28;8907;-58
2023/06/22 10:19:03;;;;;;;;;22.20;17.60;;;;;28.22;57.01;99806.00;5094637;28;8848;-59
2023/06/22 10:21:31;;;;;;;;;21.20;19.60;;;;;28.22;57.24;99807.91;5093555;28;8844;-58
2023/06/22 10:24:05;;;;;;;;;20.00;19.80;;;;;28.18;57.33;99804.81;5093004;28;8883;-58
2023/06/22 10:26:34;;;;;;;;;17.80;16.20;;;;;28.18;57.35;99793.88;5093205;28;9554;-58
2023/06/22 10:29:02;;;;;;;;;13.20;13.20;;;;;28.21;57.69;99787.91;5011714;28;8864;-58
2023/06/22 10:31:34;;;;;;;;;15.20;15.00;;;;;28.23;56.97;99782.19;5063685;28;8927;-58
2023/06/22 10:34:03;;;;;;;;;14.80;14.80;;;;;28.22;57.36;99778.59;5095023;28;8841;-58
2023/06/22 10:36:31;;;;;;;;;13.20;11.60;;;;;28.17;57.37;99777.66;5095416;28;8845;-58
2023/06/22 10:39:01;;;;;;;;;16.20;15.00;;;;;28.05;57.73;99772.19;5095149;28;8833;-58
2023/06/22 10:41:30;;;;;;;;;13.80;12.40;;;;;27.99;57.47;99772.31;5094096;28;8841;-57
2023/06/22 10:43:58;;;;;;;;;17.20;14.80;;;;;27.92;58.12;99777.06;5094305;28;8857;-59
2023/06/22 10:46:27;;;;;;;;;15.60;15.20;;;;;27.84;57.89;99775.50;5094048;28;8872;-58
2023/06/22 10:48:56;;;;;;;;;15.00;13.40;;;;;27.76;58.68;99758.59;5093928;28;8837;-57
2023/06/22 10:51:25;;;;;;;;;19.40;18.00;;;;;27.68;58.20;99758.94;5093057;28;8836;-58
2023/06/22 10:53:53;;;;;;;;;19.00;17.60;;;;;27.56;58.34;99758.88;5094553;28;9530;-58
2023/06/22 10:56:21;;;;;;;;;18.20;15.80;;;;;27.40;59.52;99761.50;5094388;28;8833;-58
2023/06/22 10:58:49;;;;;;;;;14.80;13.40;;;;;27.22;59.26;99754.19;5094431;28;8859;-58
2023/06/22 11:01:17;;;;;;;;;14.40;13.60;;;;;27.08;59.38;99746.38;5094131;28;9494;-57
2023/06/22 11:04:02;;;;;;;;;17.80;16.00;;;;;26.94;60.30;99753.09;5093591;28;8971;-57
2023/06/22 11:06:31;;;;;;;;;14.60;13.80;;;;;26.80;60.11;99751.59;5094003;28;8845;-59
2023/06/22 11:08:59;;;;;;;;;17.40;15.80;;;;;26.69;60.39;99758.69;5094060;28;8840;-57
2023/06/22 11:11:29;;;;;;;;;14.00;13.00;;;;;26.59;60.61;99763.00;5092781;28;8781;-60
2023/06/22 11:13:58;;;;;;;;;17.80;17.40;;;;;26.50;61.38;99776.09;5094025;28;8858;-58
2023/06/22 11:16:26;;;;;;;;;22.00;18.60;;;;;26.35;61.68;99793.94;5094007;28;8857;-59
2023/06/22 11:18:54;;;;;;;;;14.40;14.00;;;;;26.20;62.10;99804.41;5091075;28;8849;-58
2023/06/22 11:21:22;;;;;;;;;19.40;18.40;;;;;26.08;62.18;99820.69;5092624;28;8955;-60
2023/06/22 11:23:50;;;;;;;;;13.40;10.20;;;;;25.96;61.96;99821.66;5094073;28;8941;-59
2023/06/22 11:26:18;;;;;;;;;16.20;16.00;;;;;25.84;62.64;99837.88;5096263;28;8856;-59
2023/06/22 11:28:46;;;;;;;;;19.00;16.40;;;;;25.75;62.75;99847.38;5097699;28;8994;-60